createdAt,value
2018-10-18T00:01:30.509Z,65.00
2018-10-18T00:03:58.759Z,65.00
2018-10-18T00:06:28.235Z,65.00
2018-10-18T00:08:56.518Z,65.00
2018-10-18T00:11:24.757Z,64.90
2018-10-18T00:13:53.067Z,64.90
2018-10-18T00:16:21.397Z,64.80
2018-10-18T00:18:49.661Z,64.90
2018-10-18T00:21:18.251Z,64.90
2018-10-18T00:23:46.486Z,64.80
2018-10-18T00:26:14.807Z,64.80
2018-10-18T00:28:43.283Z,64.70
2018-10-18T00:31:11.518Z,64.60
2018-10-18T00:33:39.767Z,64.60
2018-10-18T00:36:08.082Z,64.60
2018-10-18T00:38:36.289Z,64.70
2018-10-18T00:41:04.811Z,64.60
2018-10-18T00:43:33.499Z,64.60
2018-10-18T00:46:01.785Z,64.60
2018-10-18T00:48:30.014Z,64.60
2018-10-18T00:50:58.811Z,64.60
2018-10-18T00:53:27.069Z,64.60
2018-10-18T00:55:55.362Z,64.50
2018-10-18T00:58:23.945Z,65.30
2018-10-18T01:00:52.191Z,64.50
2018-10-18T01:03:20.467Z,64.50
2018-10-18T01:05:48.971Z,64.50
2018-10-18T01:08:18.014Z,64.50
2018-10-18T01:10:46.195Z,64.50
2018-10-18T01:13:14.825Z,64.40
2018-10-18T01:15:43.080Z,64.40
2018-10-18T01:18:11.379Z,64.40
2018-10-18T01:20:39.861Z,64.40
2018-10-18T01:23:08.835Z,64.40
2018-10-18T01:25:37.092Z,64.40
2018-10-18T01:34:51.938Z,64.40
2018-10-18T01:37:20.222Z,64.40
2018-10-18T01:39:48.459Z,64.40
2018-10-18T01:42:16.844Z,65.10
2018-10-18T01:44:45.019Z,64.40
2018-10-18T01:47:13.297Z,64.30
2018-10-18T01:49:42.114Z,64.30
2018-10-18T01:52:10.359Z,64.30
2018-10-18T01:54:38.631Z,64.30
2018-10-18T01:57:07.364Z,64.30
2018-10-18T01:59:35.621Z,64.30
2018-10-18T02:02:03.973Z,64.20
2018-10-18T02:04:34.126Z,64.20
2018-10-18T02:07:02.402Z,64.10
2018-10-18T02:09:30.902Z,64.10
2018-10-18T02:11:59.448Z,64.10
2018-10-18T02:14:27.765Z,64.10
2018-10-18T02:16:55.995Z,64.10
2018-10-18T02:19:24.319Z,64.00
2018-10-18T02:21:52.545Z,64.00
2018-10-18T02:24:20.786Z,64.00
2018-10-18T02:26:50.054Z,64.00
2018-10-18T02:29:18.315Z,63.90
2018-10-18T02:31:46.573Z,63.90
2018-10-18T02:34:14.895Z,64.00
2018-10-18T02:36:43.148Z,63.90
2018-10-18T02:39:11.423Z,64.00
2018-10-18T02:41:40.239Z,63.90
2018-10-18T02:44:08.571Z,63.90
2018-10-18T02:46:36.834Z,63.90
2018-10-18T02:49:05.476Z,63.90
2018-10-18T02:51:33.715Z,63.90
2018-10-18T02:54:02.057Z,63.90
2018-10-18T02:56:30.486Z,64.60
2018-10-18T02:58:58.723Z,63.90
2018-10-18T03:01:26.986Z,63.80
2018-10-18T03:03:56.046Z,63.80
2018-10-18T03:06:24.351Z,63.80
2018-10-18T03:08:52.587Z,63.80
2018-10-18T03:11:21.978Z,63.80
2018-10-18T03:13:50.239Z,63.70
2018-10-18T03:16:18.491Z,63.70
2018-10-18T03:18:46.824Z,63.70
2018-10-18T03:21:15.096Z,63.70
2018-10-18T03:23:43.384Z,63.70
2018-10-18T03:26:11.980Z,64.30
2018-10-18T03:28:40.214Z,63.90
2018-10-18T03:31:08.466Z,63.60
2018-10-18T03:33:36.773Z,63.60
2018-10-18T03:36:05.385Z,63.60
2018-10-18T03:38:33.622Z,63.60
2018-10-18T03:41:02.256Z,63.60
2018-10-18T03:43:30.514Z,63.60
2018-10-18T03:45:58.773Z,63.60
2018-10-18T03:48:27.698Z,63.50
2018-10-18T03:50:55.946Z,63.50
2018-10-18T03:53:24.182Z,63.50
2018-10-18T03:55:52.743Z,63.50
2018-10-18T03:58:20.972Z,63.50
2018-10-18T04:00:49.204Z,63.50
2018-10-18T04:03:17.768Z,63.50
2018-10-18T04:05:46.007Z,63.50
2018-10-18T04:08:14.333Z,63.40
2018-10-18T04:10:42.946Z,63.30
2018-10-18T04:13:12.126Z,63.40
2018-10-18T04:15:40.394Z,63.30
2018-10-18T04:18:09.093Z,63.30
2018-10-18T04:20:37.249Z,63.30
2018-10-18T04:23:05.675Z,63.30
2018-10-18T04:25:34.337Z,63.30
2018-10-18T04:28:02.726Z,63.30
2018-10-18T04:30:30.979Z,63.30
2018-10-18T04:32:59.256Z,63.30
2018-10-18T04:35:27.487Z,63.30
2018-10-18T04:37:55.852Z,63.30
2018-10-18T04:40:24.818Z,63.20
2018-10-18T04:42:53.206Z,63.20
2018-10-18T04:45:21.562Z,63.20
2018-10-18T04:47:50.953Z,63.20
2018-10-18T04:50:19.046Z,63.20
2018-10-18T04:52:47.298Z,63.20
2018-10-18T04:55:15.763Z,63.30
2018-10-18T04:57:43.965Z,63.50
2018-10-18T05:00:12.210Z,63.90
2018-10-18T05:02:40.867Z,63.80
2018-10-18T05:05:20.716Z,64.10
2018-10-18T05:07:49.543Z,64.50
2018-10-18T05:10:17.820Z,64.50
2018-10-18T05:12:46.199Z,64.80
2018-10-18T05:15:15.697Z,65.40
2018-10-18T05:17:43.967Z,65.60
2018-10-18T05:20:12.227Z,65.70
2018-10-18T05:22:40.552Z,65.50
2018-10-18T05:25:09.269Z,65.30
2018-10-18T05:27:37.347Z,65.30
2018-10-18T05:30:07.588Z,65.20
2018-10-18T05:32:35.982Z,65.50
2018-10-18T05:35:04.271Z,65.70
2018-10-18T05:37:32.838Z,65.90
2018-10-18T05:40:01.008Z,66.00
2018-10-18T05:42:38.745Z,65.80
2018-10-18T05:45:07.562Z,66.00
2018-10-18T05:47:36.878Z,65.90
2018-10-18T05:50:05.998Z,65.60
2018-10-18T05:52:34.236Z,65.50
2018-10-18T05:55:02.850Z,65.70
2018-10-18T05:57:31.064Z,65.90
2018-10-18T05:59:59.482Z,66.10
2018-10-18T06:02:28.127Z,66.10
2018-10-18T06:04:56.386Z,65.80
2018-10-18T06:07:24.681Z,66.40
2018-10-18T06:09:53.999Z,65.70
2018-10-18T06:12:22.316Z,65.60
2018-10-18T06:14:50.575Z,65.50
2018-10-18T06:17:20.051Z,65.50
2018-10-18T06:19:48.834Z,65.40
2018-10-18T06:22:17.190Z,65.50
2018-10-18T06:24:46.005Z,65.60
2018-10-18T06:27:14.273Z,66.40
2018-10-18T06:29:42.684Z,67.40
2018-10-18T06:32:12.055Z,67.90
2018-10-18T06:34:40.355Z,68.90
2018-10-18T06:37:08.762Z,70.10
2018-10-18T06:39:37.297Z,71.00
2018-10-18T06:42:05.586Z,71.60
2018-10-18T06:44:35.343Z,71.40
2018-10-18T06:47:03.718Z,70.50
2018-10-18T06:49:32.003Z,70.20
2018-10-18T06:52:01.144Z,69.40
2018-10-18T06:54:29.432Z,69.10
2018-10-18T06:56:57.687Z,68.70
2018-10-18T06:59:26.692Z,68.40
2018-10-18T07:01:54.938Z,66.90
2018-10-18T07:04:23.328Z,66.10
2018-10-18T07:06:51.830Z,65.80
2018-10-18T07:09:20.122Z,65.40
2018-10-18T07:11:48.568Z,65.00
2018-10-18T07:14:18.495Z,64.70
2018-10-18T07:16:46.882Z,64.40
2018-10-18T07:19:18.944Z,64.30
2018-10-18T07:21:47.208Z,64.90
2018-10-18T07:24:15.658Z,65.20
2018-10-18T07:26:44.186Z,64.60
2018-10-18T07:29:12.528Z,64.50
2018-10-18T07:31:40.898Z,64.30
2018-10-18T07:34:09.619Z,64.20
2018-10-18T07:36:37.885Z,64.10
2018-10-18T07:39:10.079Z,64.10
2018-10-18T07:41:38.351Z,64.10
2018-10-18T07:44:06.601Z,64.10
2018-10-18T07:46:35.622Z,64.00
2018-10-18T07:49:04.210Z,63.60
2018-10-18T07:51:32.567Z,63.60
2018-10-18T07:54:02.397Z,63.40
2018-10-18T07:56:30.637Z,63.30
2018-10-18T07:58:59.110Z,63.00
2018-10-18T08:01:27.746Z,63.00
2018-10-18T08:03:58.686Z,63.00
2018-10-18T08:06:26.942Z,63.10
2018-10-18T08:08:55.751Z,63.30
2018-10-18T08:11:24.026Z,63.30
2018-10-18T08:13:52.375Z,63.30
2018-10-18T08:16:21.294Z,63.40
2018-10-18T08:18:49.580Z,63.50
2018-10-18T08:21:17.881Z,63.50
2018-10-18T08:23:46.735Z,63.50
2018-10-18T08:26:15.001Z,63.00
2018-10-18T08:28:43.345Z,63.30
2018-10-18T08:31:11.875Z,61.80
2018-10-18T08:33:40.111Z,61.00
2018-10-18T08:36:08.420Z,60.80
2018-10-18T08:38:36.950Z,60.80
2018-10-18T08:41:05.526Z,61.40
2018-10-18T08:43:33.805Z,61.70
2018-10-18T08:46:02.858Z,61.90
2018-10-18T08:48:31.304Z,61.80
2018-10-18T08:50:59.577Z,61.60
2018-10-18T08:53:28.214Z,61.70
2018-10-18T08:55:56.559Z,63.30
2018-10-18T08:58:24.826Z,71.10
2018-10-18T09:00:55.639Z,64.20
2018-10-18T09:03:23.871Z,63.70
2018-10-18T09:05:53.145Z,63.30
2018-10-18T09:08:21.560Z,61.80
2018-10-18T09:10:49.918Z,61.70
2018-10-18T09:13:18.327Z,61.40
2018-10-18T09:15:46.609Z,61.10
2018-10-18T09:18:15.068Z,61.00
2018-10-18T09:20:43.313Z,60.90
2018-10-18T09:23:12.694Z,60.80
2018-10-18T09:25:40.974Z,60.60
2018-10-18T09:28:09.241Z,60.30
2018-10-18T09:30:37.735Z,60.30
2018-10-18T09:33:06.034Z,60.40
2018-10-18T09:35:34.404Z,60.30
2018-10-18T09:38:03.307Z,60.20
2018-10-18T09:40:31.605Z,60.20
2018-10-18T09:43:00.059Z,60.30
2018-10-18T09:45:28.887Z,60.40
2018-10-18T09:47:57.235Z,60.50
2018-10-18T09:50:25.493Z,60.60
2018-10-18T09:52:53.825Z,60.60
2018-10-18T09:55:22.276Z,60.80
2018-10-18T09:57:50.447Z,61.80
2018-10-18T10:00:26.430Z,61.40
2018-10-18T10:03:00.097Z,61.40
2018-10-18T10:05:28.924Z,61.60
2018-10-18T10:07:59.360Z,61.70
2018-10-18T10:10:27.644Z,61.80
2018-10-18T10:12:56.243Z,61.80
2018-10-18T10:15:24.475Z,61.90
2018-10-18T10:17:52.778Z,62.00
2018-10-18T10:20:21.340Z,62.00
2018-10-18T10:22:49.790Z,62.00
2018-10-18T10:25:18.197Z,62.40
2018-10-18T10:27:47.311Z,62.00
2018-10-18T10:30:15.750Z,62.00
2018-10-18T10:32:44.026Z,62.00
2018-10-18T10:35:13.042Z,62.30
2018-10-18T10:37:41.206Z,62.40
2018-10-18T10:40:10.428Z,62.50
2018-10-18T10:42:39.459Z,62.30
2018-10-18T10:45:08.563Z,62.30
2018-10-18T10:47:36.828Z,62.30
2018-10-18T10:50:06.880Z,62.30
2018-10-18T10:52:35.119Z,62.30
2018-10-18T10:55:03.559Z,62.80
2018-10-18T10:57:34.419Z,62.90
2018-10-18T11:00:02.710Z,63.00
2018-10-18T11:02:30.938Z,62.90
2018-10-18T11:05:00.474Z,62.80
2018-10-18T11:07:28.832Z,62.80
2018-10-18T11:09:57.494Z,62.90
2018-10-18T11:12:26.550Z,62.90
2018-10-18T11:14:54.954Z,62.90
2018-10-18T11:17:23.342Z,63.00
2018-10-18T11:19:51.987Z,63.10
2018-10-18T11:22:20.243Z,63.20
2018-10-18T11:24:48.570Z,63.50
2018-10-18T11:27:17.198Z,63.50
2018-10-18T11:29:45.390Z,64.50
2018-10-18T11:32:13.704Z,65.10
2018-10-18T11:34:42.702Z,64.80
2018-10-18T11:37:11.056Z,65.10
2018-10-18T11:39:39.587Z,65.30
2018-10-18T11:42:08.509Z,64.80
2018-10-18T11:44:40.754Z,65.00
2018-10-18T11:51:46.842Z,65.10
2018-10-18T11:54:15.276Z,65.10
2018-10-18T11:56:43.637Z,65.10
2018-10-18T11:59:11.930Z,65.30
2018-10-18T12:01:40.814Z,66.00
2018-10-18T12:04:09.081Z,66.40
2018-10-18T12:06:37.431Z,66.60
2018-10-18T12:09:10.856Z,66.90
2018-10-18T12:11:41.395Z,66.80
2018-10-18T12:14:09.941Z,66.70
2018-10-18T12:16:38.183Z,66.30
2018-10-18T12:19:06.554Z,66.20
2018-10-18T12:21:35.316Z,66.30
2018-10-18T12:24:03.683Z,66.50
2018-10-18T12:26:31.969Z,66.40
2018-10-18T12:29:00.572Z,66.40
2018-10-18T12:31:28.799Z,66.40
2018-10-18T12:33:57.269Z,66.20
2018-10-18T12:36:26.095Z,66.20
2018-10-18T12:38:54.364Z,66.20
2018-10-18T12:41:22.770Z,65.80
2018-10-18T12:43:52.059Z,66.20
2018-10-18T12:46:20.351Z,66.20
2018-10-18T12:48:48.910Z,66.10
2018-10-18T12:51:17.184Z,66.10
2018-10-18T12:53:45.492Z,65.90
2018-10-18T12:56:13.947Z,65.70
2018-10-18T12:58:42.959Z,65.60
2018-10-18T13:01:11.327Z,65.30
2018-10-18T13:03:39.799Z,65.30
2018-10-18T13:06:08.553Z,64.90
2018-10-18T13:08:36.758Z,64.60
2018-10-18T13:11:05.415Z,65.00
2018-10-18T13:13:35.286Z,64.90
2018-10-18T13:16:03.660Z,64.90
2018-10-18T13:18:31.937Z,65.10
2018-10-18T13:21:00.819Z,65.10
2018-10-18T13:23:29.098Z,65.40
2018-10-18T13:25:57.365Z,65.30
2018-10-18T13:28:26.151Z,65.30
2018-10-18T13:30:54.434Z,65.20
2018-10-18T13:33:22.707Z,65.30
2018-10-18T13:35:51.783Z,65.10
2018-10-18T13:38:20.108Z,65.30
2018-10-18T13:40:48.554Z,65.00
2018-10-18T13:43:17.156Z,65.00
2018-10-18T13:45:45.508Z,64.90
2018-10-18T13:48:14.029Z,64.70
2018-10-18T13:50:42.488Z,64.60
2018-10-18T13:53:10.761Z,64.40
2018-10-18T13:55:39.113Z,65.10
2018-10-18T13:58:08.932Z,64.50
2018-10-18T14:00:37.283Z,64.60
2018-10-18T14:03:05.628Z,64.80
2018-10-18T14:05:36.079Z,64.80
2018-10-18T14:08:04.372Z,64.60
2018-10-18T14:10:32.629Z,64.60
2018-10-18T14:13:01.387Z,64.50
2018-10-18T14:15:29.740Z,64.50
2018-10-18T14:17:58.130Z,64.40
2018-10-18T14:20:26.391Z,64.30
2018-10-18T14:22:54.661Z,64.10
2018-10-18T14:25:22.917Z,63.90
2018-10-18T14:27:51.982Z,63.70
2018-10-18T14:30:20.305Z,63.60
2018-10-18T14:32:48.545Z,63.60
2018-10-18T14:35:17.036Z,63.50
2018-10-18T14:37:45.319Z,63.40
2018-10-18T14:40:13.632Z,63.40
2018-10-18T14:42:42.051Z,63.50
2018-10-18T14:45:10.465Z,63.50
2018-10-18T14:47:38.940Z,63.50
2018-10-18T14:50:09.846Z,63.40
2018-10-18T14:52:38.122Z,63.40
2018-10-18T14:55:06.598Z,63.50
2018-10-18T14:57:35.285Z,63.60
2018-10-18T15:00:03.643Z,63.30
2018-10-18T15:02:31.976Z,64.50
2018-10-18T15:05:07.084Z,65.00
2018-10-18T15:07:36.332Z,65.50
2018-10-18T15:10:05.859Z,65.80
2018-10-18T15:12:34.332Z,66.00
2018-10-18T15:15:09.431Z,66.20
2018-10-18T15:17:38.404Z,66.40
2018-10-18T15:20:07.668Z,66.40
2018-10-18T15:22:35.893Z,66.60
2018-10-18T15:25:04.816Z,67.30
2018-10-18T15:27:33.131Z,66.40
2018-10-18T15:30:01.519Z,66.30
2018-10-18T15:32:31.014Z,66.40
2018-10-18T15:34:59.293Z,66.40
2018-10-18T15:37:27.622Z,66.30
2018-10-18T15:39:55.976Z,66.30
2018-10-18T15:42:24.334Z,66.20
2018-10-18T15:44:52.706Z,66.30
2018-10-18T15:47:21.610Z,66.20
2018-10-18T15:49:49.791Z,66.20
2018-10-18T15:52:18.090Z,66.30
2018-10-18T15:54:46.461Z,66.40
2018-10-18T15:57:14.977Z,66.70
2018-10-18T15:59:43.234Z,67.30
2018-10-18T16:02:12.563Z,67.40
2018-10-18T16:04:40.846Z,67.80
2018-10-18T16:07:09.286Z,68.10
2018-10-18T16:09:39.180Z,68.30
2018-10-18T16:12:07.462Z,68.50
2018-10-18T16:14:35.732Z,68.60
2018-10-18T16:17:04.455Z,68.70
2018-10-18T16:19:32.683Z,68.60
2018-10-18T16:22:00.979Z,68.50
2018-10-18T16:24:29.556Z,68.60
2018-10-18T16:26:57.846Z,69.30
2018-10-18T16:29:26.143Z,68.90
2018-10-18T16:31:55.390Z,68.80
2018-10-18T16:34:23.758Z,69.50
2018-10-18T16:36:52.132Z,69.10
2018-10-18T16:39:21.067Z,69.00
2018-10-18T16:41:49.541Z,69.20
2018-10-18T16:44:17.801Z,69.00
2018-10-18T16:46:46.409Z,69.00
2018-10-18T16:49:14.695Z,68.80
2018-10-18T16:51:42.979Z,69.30
2018-10-18T16:54:11.438Z,68.60
2018-10-18T16:56:39.611Z,68.20
2018-10-18T16:59:07.899Z,68.00
2018-10-18T17:01:36.342Z,67.90
2018-10-18T17:04:06.226Z,67.80
2018-10-18T17:06:34.626Z,67.80
2018-10-18T17:09:03.663Z,67.70
2018-10-18T17:11:32.172Z,67.60
2018-10-18T17:14:00.420Z,67.60
2018-10-18T17:16:29.388Z,68.40
2018-10-18T17:18:57.675Z,68.40
2018-10-18T17:21:26.069Z,68.30
2018-10-18T17:23:55.063Z,69.10
2018-10-18T17:26:23.839Z,68.90
2018-10-18T17:28:52.104Z,68.90
2018-10-18T17:31:20.810Z,68.80
2018-10-18T17:33:49.327Z,68.90
2018-10-18T17:36:17.725Z,69.10
2018-10-18T17:38:46.981Z,69.50
2018-10-18T17:41:15.282Z,69.60
2018-10-18T17:43:43.607Z,69.20
2018-10-18T17:46:12.520Z,69.70
2018-10-18T17:48:40.734Z,69.60
2018-10-18T17:51:09.042Z,69.50
2018-10-18T17:53:37.866Z,69.10
2018-10-18T17:56:06.703Z,69.30
2018-10-18T17:58:34.964Z,69.40
2018-10-18T18:01:03.300Z,69.60
2018-10-18T18:03:32.047Z,69.70
2018-10-18T18:06:01.110Z,69.60
2018-10-18T18:08:29.297Z,69.50
2018-10-18T18:10:57.551Z,69.30
2018-10-18T18:13:25.914Z,69.20
2018-10-18T18:15:55.347Z,69.00
2018-10-18T18:18:23.604Z,69.00
2018-10-18T18:20:52.082Z,68.90
2018-10-18T18:23:21.170Z,68.70
2018-10-18T18:25:49.452Z,68.70
2018-10-18T18:28:17.752Z,69.40
2018-10-18T18:30:46.199Z,68.80
2018-10-18T18:33:14.474Z,68.50
2018-10-18T18:35:42.763Z,68.50
2018-10-18T18:38:12.311Z,68.40
2018-10-18T18:40:40.591Z,68.30
2018-10-18T18:43:08.978Z,68.30
2018-10-18T18:45:37.887Z,68.20
2018-10-18T18:48:06.290Z,68.10
2018-10-18T18:50:34.637Z,68.00
2018-10-18T18:53:04.015Z,68.70
2018-10-18T18:55:32.272Z,68.00
2018-10-18T18:58:00.779Z,67.90
2018-10-18T19:00:29.415Z,67.80
2018-10-18T19:02:57.758Z,67.70
2018-10-18T19:05:26.046Z,67.70
2018-10-18T19:07:55.284Z,67.70
2018-10-18T19:10:23.634Z,67.60
2018-10-18T19:12:51.910Z,67.60
2018-10-18T19:15:21.351Z,67.50
2018-10-18T19:17:49.637Z,67.50
2018-10-18T19:20:18.007Z,67.40
2018-10-18T19:22:46.973Z,67.50
2018-10-18T19:25:15.159Z,67.50
2018-10-18T19:27:43.528Z,67.50
2018-10-18T19:30:12.544Z,67.60
2018-10-18T19:32:40.975Z,67.50
2018-10-18T19:35:09.341Z,67.50
2018-10-18T19:37:38.806Z,67.50
2018-10-18T19:40:07.852Z,67.50
2018-10-18T19:42:36.374Z,67.40
2018-10-18T19:45:05.924Z,67.40
2018-10-18T19:47:34.365Z,67.30
2018-10-18T19:50:02.693Z,67.30
2018-10-18T19:52:31.464Z,67.40
2018-10-18T19:54:59.641Z,67.20
2018-10-18T19:57:27.937Z,67.20
2018-10-18T19:59:57.451Z,67.10
2018-10-18T20:02:25.779Z,67.10
2018-10-18T20:04:55.797Z,67.10
2018-10-18T20:07:24.487Z,67.10
2018-10-18T20:09:52.748Z,67.10
2018-10-18T20:12:21.068Z,67.00
2018-10-18T20:14:50.262Z,67.00
2018-10-18T20:17:18.494Z,67.00
2018-10-18T20:19:46.756Z,67.00
2018-10-18T20:22:15.472Z,66.90
2018-10-18T20:24:44.059Z,66.90
2018-10-18T20:27:12.222Z,66.90
2018-10-18T20:29:40.707Z,66.80
2018-10-18T20:32:09.009Z,66.80
2018-10-18T20:34:37.299Z,66.80
2018-10-18T20:37:06.326Z,66.70
2018-10-18T20:39:34.715Z,66.70
2018-10-18T20:42:03.016Z,66.70
2018-10-18T20:44:31.487Z,66.70
2018-10-18T20:46:59.815Z,66.70
2018-10-18T20:49:28.061Z,67.50
2018-10-18T20:51:56.502Z,66.60
2018-10-18T20:54:24.813Z,66.60
2018-10-18T20:56:53.096Z,67.30
2018-10-18T20:59:21.869Z,66.60
2018-10-18T21:01:50.135Z,66.50
2018-10-18T21:04:18.555Z,66.60
2018-10-18T21:06:47.834Z,66.50
2018-10-18T21:09:16.374Z,66.50
2018-10-18T21:11:44.611Z,66.50
2018-10-18T21:14:13.174Z,66.50
2018-10-18T21:16:41.582Z,66.50
2018-10-18T21:19:09.831Z,66.50
2018-10-18T21:21:41.159Z,66.60
2018-10-18T21:24:09.462Z,66.40
2018-10-18T21:26:37.786Z,66.40
2018-10-18T21:29:06.162Z,66.50
2018-10-18T21:31:34.447Z,66.40
2018-10-18T21:34:02.850Z,66.40
2018-10-18T21:36:31.122Z,66.30
2018-10-18T21:38:59.422Z,66.40
2018-10-18T21:41:28.432Z,66.30
2018-10-18T21:43:56.775Z,66.30
2018-10-18T21:46:25.025Z,66.30
2018-10-18T21:48:53.773Z,66.20
2018-10-18T21:51:21.984Z,66.20
2018-10-18T21:53:50.231Z,66.20
2018-10-18T21:56:18.897Z,66.20
2018-10-18T21:58:47.142Z,66.30
2018-10-18T22:01:15.463Z,66.20
2018-10-18T22:03:43.951Z,66.20
2018-10-18T22:06:12.211Z,66.20
2018-10-18T22:08:41.011Z,66.10
2018-10-18T22:11:09.532Z,66.20
2018-10-18T22:13:37.856Z,66.20
2018-10-18T22:16:06.122Z,66.20
2018-10-18T22:18:34.924Z,66.20
2018-10-18T22:21:03.194Z,66.10
2018-10-18T22:23:31.501Z,66.10
2018-10-18T22:26:00.571Z,66.20
2018-10-18T22:28:28.817Z,66.10
2018-10-18T22:30:57.081Z,66.10
2018-10-18T22:33:25.366Z,66.10
2018-10-18T22:35:53.695Z,66.00
2018-10-18T22:38:21.924Z,66.00
2018-10-18T22:40:50.638Z,66.10
2018-10-18T22:43:18.972Z,66.10
2018-10-18T22:45:53.749Z,66.00
2018-10-18T22:48:21.991Z,66.00
2018-10-18T22:50:50.233Z,66.00
2018-10-18T22:53:18.542Z,66.00
2018-10-18T22:55:46.900Z,66.00
2018-10-18T22:58:15.163Z,66.00
2018-10-18T23:00:49.452Z,66.00
2018-10-18T23:03:21.623Z,66.00
2018-10-18T23:05:50.095Z,66.00
2018-10-18T23:08:18.747Z,66.00
2018-10-18T23:10:47.379Z,66.00
2018-10-18T23:13:15.864Z,66.00
2018-10-18T23:15:44.304Z,66.00
2018-10-18T23:18:12.568Z,66.00
2018-10-18T23:20:41.811Z,65.90
2018-10-18T23:23:10.881Z,65.90
2018-10-18T23:25:39.423Z,65.90
2018-10-18T23:28:07.731Z,65.90
2018-10-18T23:30:36.102Z,65.90
2018-10-18T23:33:04.692Z,65.90
2018-10-18T23:35:32.934Z,65.80
2018-10-18T23:38:01.272Z,65.90
2018-10-18T23:40:29.566Z,65.90
2018-10-18T23:42:57.806Z,65.80
2018-10-18T23:45:26.067Z,65.90
2018-10-18T23:47:54.394Z,65.80
2018-10-18T23:50:23.020Z,65.80
2018-10-18T23:52:51.503Z,65.80
2018-10-18T23:55:20.250Z,65.80
2018-10-18T23:57:48.475Z,65.80
